sensor_id;sensor_type;location;lat;lon;timestamp;P1;durP1;ratioP1;P2;durP2;ratioP2
23400;SDS011;11873;49.300;8.920;2023-11-18T00:02:58;8.60;;;4.60;;
23400;SDS011;11873;49.300;8.920;2023-11-18T00:07:59;7.43;;;4.30;;
23400;SDS011;11873;49.300;8.920;2023-11-18T00:12:59;3.40;;;3.10;;
23400;SDS011;11873;49.300;8.920;2023-11-18T00:17:59;3.63;;;3.10;;
23400;SDS011;11873;49.300;8.920;2023-11-18T00:22:59;3.80;;;3.50;;
23400;SDS011;11873;49.300;8.920;2023-11-18T00:27:59;3.80;;;3.33;;
23400;SDS011;11873;49.300;8.920;2023-11-18T00:32:59;3.27;;;2.97;;
23400;SDS011;11873;49.300;8.920;2023-11-18T00:38:00;3.13;;;2.87;;
23400;SDS011;11873;49.300;8.920;2023-11-18T00:43:00;3.30;;;3.00;;
23400;SDS011;11873;49.300;8.920;2023-11-18T00:48:00;3.00;;;2.80;;
23400;SDS011;11873;49.300;8.920;2023-11-18T00:53:00;3.70;;;3.40;;
23400;SDS011;11873;49.300;8.920;2023-11-18T00:58:00;3.17;;;2.97;;
23400;SDS011;11873;49.300;8.920;2023-11-18T01:03:01;3.80;;;3.40;;
23400;SDS011;11873;49.300;8.920;2023-11-18T01:08:01;3.40;;;3.10;;
23400;SDS011;11873;49.300;8.920;2023-11-18T01:13:01;4.03;;;3.20;;
23400;SDS011;11873;49.300;8.920;2023-11-18T01:18:01;4.80;;;4.00;;
23400;SDS011;11873;49.300;8.920;2023-11-18T01:23:01;4.12;;;3.72;;
23400;SDS011;11873;49.300;8.920;2023-11-18T01:28:02;4.73;;;4.33;;
23400;SDS011;11873;49.300;8.920;2023-11-18T01:33:02;4.67;;;3.87;;
23400;SDS011;11873;49.300;8.920;2023-11-18T01:38:02;5.40;;;4.90;;
23400;SDS011;11873;49.300;8.920;2023-11-18T01:43:02;5.68;;;4.65;;
23400;SDS011;11873;49.300;8.920;2023-11-18T01:48:02;4.90;;;4.50;;
23400;SDS011;11873;49.300;8.920;2023-11-18T01:53:03;5.80;;;5.30;;
23400;SDS011;11873;49.300;8.920;2023-11-18T01:58:04;7.80;;;5.43;;
23400;SDS011;11873;49.300;8.920;2023-11-18T02:03:04;6.70;;;5.03;;
23400;SDS011;11873;49.300;8.920;2023-11-18T02:08:05;4.63;;;4.20;;
23400;SDS011;11873;49.300;8.920;2023-11-18T02:18:06;4.50;;;4.10;;
23400;SDS011;11873;49.300;8.920;2023-11-18T02:23:06;4.80;;;4.37;;
23400;SDS011;11873;49.300;8.920;2023-11-18T02:28:06;5.17;;;4.67;;
23400;SDS011;11873;49.300;8.920;2023-11-18T02:33:08;6.37;;;5.00;;
23400;SDS011;11873;49.300;8.920;2023-11-18T02:38:11;5.87;;;5.27;;
23400;SDS011;11873;49.300;8.920;2023-11-18T02:43:11;4.83;;;4.43;;
23400;SDS011;11873;49.300;8.920;2023-11-18T02:48:12;5.50;;;4.93;;
23400;SDS011;11873;49.300;8.920;2023-11-18T02:53:12;7.87;;;6.37;;
23400;SDS011;11873;49.300;8.920;2023-11-18T02:58:12;5.53;;;5.00;;
23400;SDS011;11873;49.300;8.920;2023-11-18T03:03:12;6.00;;;5.40;;
23400;SDS011;11873;49.300;8.920;2023-11-18T03:08:12;6.33;;;5.73;;
23400;SDS011;11873;49.300;8.920;2023-11-18T03:13:13;7.00;;;6.00;;
23400;SDS011;11873;49.300;8.920;2023-11-18T03:18:13;5.63;;;5.13;;
23400;SDS011;11873;49.300;8.920;2023-11-18T03:23:13;5.80;;;5.20;;
23400;SDS011;11873;49.300;8.920;2023-11-18T03:28:13;8.37;;;6.00;;
23400;SDS011;11873;49.300;8.920;2023-11-18T03:33:14;6.60;;;5.83;;
23400;SDS011;11873;49.300;8.920;2023-11-18T03:38:14;9.43;;;6.90;;
23400;SDS011;11873;49.300;8.920;2023-11-18T03:43:14;6.40;;;5.80;;
23400;SDS011;11873;49.300;8.920;2023-11-18T03:48:14;6.57;;;5.93;;
23400;SDS011;11873;49.300;8.920;2023-11-18T03:53:15;6.85;;;6.25;;
23400;SDS011;11873;49.300;8.920;2023-11-18T03:58:15;6.80;;;6.07;;
23400;SDS011;11873;49.300;8.920;2023-11-18T04:03:15;7.13;;;6.40;;
23400;SDS011;11873;49.300;8.920;2023-11-18T04:08:15;7.20;;;6.50;;
23400;SDS011;11873;49.300;8.920;2023-11-18T04:13:15;6.73;;;6.13;;
23400;SDS011;11873;49.300;8.920;2023-11-18T04:18:15;9.37;;;6.70;;
23400;SDS011;11873;49.300;8.920;2023-11-18T04:23:16;9.17;;;6.60;;
23400;SDS011;11873;49.300;8.920;2023-11-18T04:28:16;8.20;;;6.83;;
23400;SDS011;11873;49.300;8.920;2023-11-18T04:33:16;7.60;;;6.80;;
23400;SDS011;11873;49.300;8.920;2023-11-18T04:38:16;7.43;;;6.73;;
23400;SDS011;11873;49.300;8.920;2023-11-18T04:43:17;9.73;;;7.37;;
23400;SDS011;11873;49.300;8.920;2023-11-18T04:48:17;7.07;;;6.37;;
23400;SDS011;11873;49.300;8.920;2023-11-18T04:53:17;7.30;;;6.53;;
23400;SDS011;11873;49.300;8.920;2023-11-18T04:58:17;9.23;;;6.83;;
23400;SDS011;11873;49.300;8.920;2023-11-18T05:03:17;7.70;;;6.90;;
23400;SDS011;11873;49.300;8.920;2023-11-18T05:08:18;19.03;;;15.83;;
23400;SDS011;11873;49.300;8.920;2023-11-18T05:13:19;9.17;;;7.37;;
23400;SDS011;11873;49.300;8.920;2023-11-18T05:18:19;7.77;;;6.80;;
23400;SDS011;11873;49.300;8.920;2023-11-18T05:23:19;9.90;;;6.90;;
23400;SDS011;11873;49.300;8.920;2023-11-18T05:28:19;4.77;;;4.33;;
23400;SDS011;11873;49.300;8.920;2023-11-18T05:33:19;5.20;;;4.57;;
23400;SDS011;11873;49.300;8.920;2023-11-18T05:38:20;8.33;;;5.10;;
23400;SDS011;11873;49.300;8.920;2023-11-18T05:43:20;7.27;;;5.37;;
23400;SDS011;11873;49.300;8.920;2023-11-18T05:48:20;5.50;;;5.00;;
23400;SDS011;11873;49.300;8.920;2023-11-18T05:53:20;6.90;;;6.10;;
23400;SDS011;11873;49.300;8.920;2023-11-18T05:58:20;7.20;;;5.37;;
23400;SDS011;11873;49.300;8.920;2023-11-18T06:03:21;5.60;;;5.00;;
23400;SDS011;11873;49.300;8.920;2023-11-18T06:08:21;4.70;;;4.30;;
23400;SDS011;11873;49.300;8.920;2023-11-18T06:13:21;4.57;;;4.17;;
23400;SDS011;11873;49.300;8.920;2023-11-18T06:18:22;4.47;;;4.07;;
23400;SDS011;11873;49.300;8.920;2023-11-18T06:23:22;4.90;;;4.07;;
23400;SDS011;11873;49.300;8.920;2023-11-18T06:28:22;7.00;;;5.60;;
23400;SDS011;11873;49.300;8.920;2023-11-18T06:33:22;6.13;;;5.53;;
23400;SDS011;11873;49.300;8.920;2023-11-18T06:38:22;6.17;;;5.57;;
23400;SDS011;11873;49.300;8.920;2023-11-18T06:43:23;5.30;;;4.80;;
23400;SDS011;11873;49.300;8.920;2023-11-18T06:48:23;5.30;;;4.80;;
23400;SDS011;11873;49.300;8.920;2023-11-18T06:53:23;5.77;;;4.67;;
23400;SDS011;11873;49.300;8.920;2023-11-18T06:58:23;5.50;;;5.00;;
23400;SDS011;11873;49.300;8.920;2023-11-18T07:03:23;5.57;;;4.50;;
23400;SDS011;11873;49.300;8.920;2023-11-18T07:08:23;6.50;;;5.63;;
23400;SDS011;11873;49.300;8.920;2023-11-18T07:13:24;5.73;;;5.13;;
23400;SDS011;11873;49.300;8.920;2023-11-18T07:18:24;5.27;;;4.77;;
23400;SDS011;11873;49.300;8.920;2023-11-18T07:23:24;4.03;;;3.63;;
23400;SDS011;11873;49.300;8.920;2023-11-18T07:28:24;4.50;;;3.80;;
23400;SDS011;11873;49.300;8.920;2023-11-18T07:33:24;5.33;;;4.00;;
23400;SDS011;11873;49.300;8.920;2023-11-18T07:38:25;4.53;;;4.13;;
23400;SDS011;11873;49.300;8.920;2023-11-18T07:43:25;5.10;;;4.60;;
23400;SDS011;11873;49.300;8.920;2023-11-18T07:48:25;5.47;;;4.37;;
23400;SDS011;11873;49.300;8.920;2023-11-18T07:53:25;6.87;;;5.60;;
23400;SDS011;11873;49.300;8.920;2023-11-18T07:58:25;4.40;;;4.00;;
23400;SDS011;11873;49.300;8.920;2023-11-18T08:03:26;5.73;;;4.63;;
23400;SDS011;11873;49.300;8.920;2023-11-18T08:08:26;4.20;;;3.90;;
23400;SDS011;11873;49.300;8.920;2023-11-18T08:13:26;5.17;;;4.30;;
23400;SDS011;11873;49.300;8.920;2023-11-18T08:18:26;4.53;;;4.13;;
23400;SDS011;11873;49.300;8.920;2023-11-18T08:23:26;5.05;;;4.65;;
23400;SDS011;11873;49.300;8.920;2023-11-18T08:28:26;5.17;;;4.40;;
23400;SDS011;11873;49.300;8.920;2023-11-18T08:33:27;10.37;;;7.10;;
23400;SDS011;11873;49.300;8.920;2023-11-18T08:38:27;5.77;;;4.60;;
23400;SDS011;11873;49.300;8.920;2023-11-18T08:43:27;4.27;;;3.87;;
23400;SDS011;11873;49.300;8.920;2023-11-18T08:48:27;5.97;;;4.90;;
23400;SDS011;11873;49.300;8.920;2023-11-18T08:53:28;5.03;;;4.10;;
23400;SDS011;11873;49.300;8.920;2023-11-18T08:58:28;6.50;;;4.27;;
23400;SDS011;11873;49.300;8.920;2023-11-18T09:03:28;8.43;;;7.63;;
23400;SDS011;11873;49.300;8.920;2023-11-18T09:08:29;3.90;;;3.23;;
23400;SDS011;11873;49.300;8.920;2023-11-18T09:13:29;4.23;;;3.77;;
23400;SDS011;11873;49.300;8.920;2023-11-18T09:18:29;4.03;;;3.43;;
23400;SDS011;11873;49.300;8.920;2023-11-18T09:23:30;5.00;;;3.93;;
23400;SDS011;11873;49.300;8.920;2023-11-18T09:28:31;3.33;;;3.03;;
23400;SDS011;11873;49.300;8.920;2023-11-18T09:33:31;5.70;;;5.10;;
23400;SDS011;11873;49.300;8.920;2023-11-18T09:38:32;3.07;;;2.77;;
23400;SDS011;11873;49.300;8.920;2023-11-18T09:43:33;4.03;;;2.43;;
23400;SDS011;11873;49.300;8.920;2023-11-18T09:48:33;3.33;;;2.87;;
23400;SDS011;11873;49.300;8.920;2023-11-18T09:53:37;4.17;;;2.57;;
23400;SDS011;11873;49.300;8.920;2023-11-18T09:58:43;2.47;;;2.27;;
23400;SDS011;11873;49.300;8.920;2023-11-18T10:03:45;2.60;;;2.37;;
23400;SDS011;11873;49.300;8.920;2023-11-18T10:08:45;4.50;;;3.07;;
23400;SDS011;11873;49.300;8.920;2023-11-18T10:13:46;3.30;;;3.00;;
23400;SDS011;11873;49.300;8.920;2023-11-18T10:18:46;3.37;;;2.53;;
23400;SDS011;11873;49.300;8.920;2023-11-18T10:23:59;2.87;;;2.23;;
23400;SDS011;11873;49.300;8.920;2023-11-18T10:29:02;3.17;;;2.20;;
23400;SDS011;11873;49.300;8.920;2023-11-18T10:34:03;3.03;;;2.73;;
23400;SDS011;11873;49.300;8.920;2023-11-18T10:39:03;2.80;;;2.47;;
23400;SDS011;11873;49.300;8.920;2023-11-18T10:44:07;6.25;;;3.08;;
23400;SDS011;11873;49.300;8.920;2023-11-18T10:49:07;4.83;;;2.50;;
23400;SDS011;11873;49.300;8.920;2023-11-18T10:54:08;3.80;;;2.47;;
23400;SDS011;11873;49.300;8.920;2023-11-18T10:59:08;2.27;;;1.80;;
23400;SDS011;11873;49.300;8.920;2023-11-18T11:04:08;2.90;;;2.20;;
23400;SDS011;11873;49.300;8.920;2023-11-18T11:09:09;4.17;;;1.90;;
23400;SDS011;11873;49.300;8.920;2023-11-18T11:14:09;2.57;;;2.03;;
23400;SDS011;11873;49.300;8.920;2023-11-18T11:19:13;2.50;;;2.30;;
23400;SDS011;11873;49.300;8.920;2023-11-18T11:24:39;2.83;;;2.30;;
23400;SDS011;11873;49.300;8.920;2023-11-18T11:29:37;2.23;;;1.70;;
23400;SDS011;11873;49.300;8.920;2023-11-18T11:34:44;2.60;;;2.40;;
23400;SDS011;11873;49.300;8.920;2023-11-18T11:39:48;2.53;;;2.33;;
23400;SDS011;11873;49.300;8.920;2023-11-18T11:44:49;2.30;;;2.10;;
23400;SDS011;11873;49.300;8.920;2023-11-18T11:50:01;1.87;;;1.77;;
23400;SDS011;11873;49.300;8.920;2023-11-18T11:55:06;2.47;;;1.67;;
23400;SDS011;11873;49.300;8.920;2023-11-18T12:00:09;2.10;;;1.90;;
23400;SDS011;11873;49.300;8.920;2023-11-18T12:05:09;3.40;;;2.00;;
23400;SDS011;11873;49.300;8.920;2023-11-18T12:10:15;2.20;;;1.97;;
23400;SDS011;11873;49.300;8.920;2023-11-18T12:15:15;2.20;;;2.00;;
23400;SDS011;11873;49.300;8.920;2023-11-18T12:20:42;1.93;;;1.83;;
23400;SDS011;11873;49.300;8.920;2023-11-18T12:25:43;2.00;;;1.90;;
23400;SDS011;11873;49.300;8.920;2023-11-18T12:30:44;2.27;;;2.17;;
23400;SDS011;11873;49.300;8.920;2023-11-18T12:40:50;2.73;;;2.10;;
23400;SDS011;11873;49.300;8.920;2023-11-18T12:46:08;2.53;;;2.33;;
23400;SDS011;11873;49.300;8.920;2023-11-18T12:51:12;2.97;;;2.00;;
23400;SDS011;11873;49.300;8.920;2023-11-18T12:56:13;2.37;;;2.03;;
23400;SDS011;11873;49.300;8.920;2023-11-18T13:01:14;3.77;;;3.47;;
23400;SDS011;11873;49.300;8.920;2023-11-18T13:06:14;2.53;;;2.23;;
23400;SDS011;11873;49.300;8.920;2023-11-18T13:11:14;2.60;;;2.10;;
23400;SDS011;11873;49.300;8.920;2023-11-18T13:16:14;2.17;;;1.90;;
23400;SDS011;11873;49.300;8.920;2023-11-18T13:21:15;2.47;;;2.10;;
23400;SDS011;11873;49.300;8.920;2023-11-18T13:26:15;3.73;;;2.20;;
23400;SDS011;11873;49.300;8.920;2023-11-18T13:31:16;2.95;;;2.10;;
23400;SDS011;11873;49.300;8.920;2023-11-18T13:36:17;1.90;;;1.70;;
23400;SDS011;11873;49.300;8.920;2023-11-18T13:41:30;5.40;;;2.70;;
23400;SDS011;11873;49.300;8.920;2023-11-18T13:46:30;2.50;;;2.00;;
23400;SDS011;11873;49.300;8.920;2023-11-18T13:51:30;2.17;;;1.97;;
23400;SDS011;11873;49.300;8.920;2023-11-18T13:56:31;4.60;;;2.23;;
23400;SDS011;11873;49.300;8.920;2023-11-18T14:01:31;2.73;;;2.37;;
23400;SDS011;11873;49.300;8.920;2023-11-18T14:06:31;3.07;;;2.50;;
23400;SDS011;11873;49.300;8.920;2023-11-18T14:11:31;2.30;;;2.00;;
23400;SDS011;11873;49.300;8.920;2023-11-18T14:16:31;2.70;;;2.47;;
23400;SDS011;11873;49.300;8.920;2023-11-18T14:21:32;4.10;;;2.60;;
23400;SDS011;11873;49.300;8.920;2023-11-18T14:26:32;2.97;;;2.40;;
23400;SDS011;11873;49.300;8.920;2023-11-18T14:31:35;4.27;;;2.70;;
23400;SDS011;11873;49.300;8.920;2023-11-18T14:36:36;2.80;;;2.40;;
23400;SDS011;11873;49.300;8.920;2023-11-18T14:41:36;3.83;;;2.40;;
23400;SDS011;11873;49.300;8.920;2023-11-18T14:46:36;2.30;;;2.10;;
23400;SDS011;11873;49.300;8.920;2023-11-18T14:51:37;4.63;;;3.53;;
23400;SDS011;11873;49.300;8.920;2023-11-18T14:56:37;3.57;;;2.20;;
23400;SDS011;11873;49.300;8.920;2023-11-18T15:01:37;3.43;;;2.73;;
23400;SDS011;11873;49.300;8.920;2023-11-18T15:06:37;7.80;;;4.93;;
23400;SDS011;11873;49.300;8.920;2023-11-18T15:11:37;3.30;;;3.00;;
23400;SDS011;11873;49.300;8.920;2023-11-18T15:16:38;9.30;;;6.20;;
23400;SDS011;11873;49.300;8.920;2023-11-18T15:21:38;6.13;;;4.20;;
23400;SDS011;11873;49.300;8.920;2023-11-18T15:26:38;15.73;;;11.73;;
23400;SDS011;11873;49.300;8.920;2023-11-18T15:31:38;7.43;;;4.13;;
23400;SDS011;11873;49.300;8.920;2023-11-18T15:36:41;4.60;;;3.63;;
23400;SDS011;11873;49.300;8.920;2023-11-18T15:41:42;5.73;;;4.47;;
23400;SDS011;11873;49.300;8.920;2023-11-18T15:46:46;4.37;;;3.50;;
23400;SDS011;11873;49.300;8.920;2023-11-18T15:51:47;4.23;;;3.63;;
23400;SDS011;11873;49.300;8.920;2023-11-18T15:56:47;2.63;;;2.43;;
23400;SDS011;11873;49.300;8.920;2023-11-18T16:01:47;2.67;;;2.10;;
23400;SDS011;11873;49.300;8.920;2023-11-18T16:06:47;2.57;;;2.30;;
23400;SDS011;11873;49.300;8.920;2023-11-18T16:11:50;2.53;;;1.53;;
23400;SDS011;11873;49.300;8.920;2023-11-18T16:16:50;2.90;;;2.27;;
23400;SDS011;11873;49.300;8.920;2023-11-18T16:21:50;1.63;;;1.53;;
23400;SDS011;11873;49.300;8.920;2023-11-18T16:26:51;2.03;;;1.67;;
23400;SDS011;11873;49.300;8.920;2023-11-18T16:31:51;2.87;;;1.80;;
23400;SDS011;11873;49.300;8.920;2023-11-18T16:36:51;5.53;;;2.53;;
23400;SDS011;11873;49.300;8.920;2023-11-18T16:41:51;1.40;;;1.30;;
23400;SDS011;11873;49.300;8.920;2023-11-18T16:46:52;4.00;;;2.17;;
23400;SDS011;11873;49.300;8.920;2023-11-18T16:51:52;2.83;;;1.80;;
23400;SDS011;11873;49.300;8.920;2023-11-18T16:56:52;4.13;;;3.20;;
23400;SDS011;11873;49.300;8.920;2023-11-18T17:01:52;4.40;;;3.20;;
23400;SDS011;11873;49.300;8.920;2023-11-18T17:06:52;2.97;;;2.40;;
23400;SDS011;11873;49.300;8.920;2023-11-18T17:11:53;4.73;;;3.10;;
23400;SDS011;11873;49.300;8.920;2023-11-18T17:16:53;3.13;;;2.60;;
23400;SDS011;11873;49.300;8.920;2023-11-18T17:21:53;3.13;;;2.83;;
23400;SDS011;11873;49.300;8.920;2023-11-18T17:26:53;4.47;;;3.10;;
23400;SDS011;11873;49.300;8.920;2023-11-18T17:31:53;3.53;;;3.20;;
23400;SDS011;11873;49.300;8.920;2023-11-18T17:36:54;9.70;;;5.62;;
23400;SDS011;11873;49.300;8.920;2023-11-18T17:41:54;4.47;;;2.97;;
23400;SDS011;11873;49.300;8.920;2023-11-18T17:46:54;3.83;;;2.80;;
23400;SDS011;11873;49.300;8.920;2023-11-18T17:51:54;3.43;;;2.87;;
23400;SDS011;11873;49.300;8.920;2023-11-18T17:56:54;9.13;;;5.17;;
23400;SDS011;11873;49.300;8.920;2023-11-18T18:01:55;7.77;;;5.23;;
23400;SDS011;11873;49.300;8.920;2023-11-18T18:06:55;3.90;;;3.47;;
23400;SDS011;11873;49.300;8.920;2023-11-18T18:11:56;4.63;;;3.63;;
23400;SDS011;11873;49.300;8.920;2023-11-18T18:16:56;4.00;;;2.93;;
23400;SDS011;11873;49.300;8.920;2023-11-18T18:21:57;2.80;;;2.57;;
23400;SDS011;11873;49.300;8.920;2023-11-18T18:26:57;2.57;;;1.90;;
23400;SDS011;11873;49.300;8.920;2023-11-18T18:31:58;2.47;;;2.00;;
23400;SDS011;11873;49.300;8.920;2023-11-18T18:36:58;2.37;;;2.10;;
23400;SDS011;11873;49.300;8.920;2023-11-18T18:41:58;4.70;;;2.20;;
23400;SDS011;11873;49.300;8.920;2023-11-18T18:46:58;2.87;;;2.30;;
23400;SDS011;11873;49.300;8.920;2023-11-18T18:51:58;3.27;;;2.60;;
23400;SDS011;11873;49.300;8.920;2023-11-18T18:56:58;3.37;;;2.80;;
23400;SDS011;11873;49.300;8.920;2023-11-18T19:01:59;4.20;;;3.17;;
23400;SDS011;11873;49.300;8.920;2023-11-18T19:06:59;5.87;;;4.60;;
23400;SDS011;11873;49.300;8.920;2023-11-18T19:11:59;3.70;;;3.07;;
23400;SDS011;11873;49.300;8.920;2023-11-18T19:16:59;2.30;;;2.10;;
23400;SDS011;11873;49.300;8.920;2023-11-18T19:22:00;2.27;;;2.07;;
23400;SDS011;11873;49.300;8.920;2023-11-18T19:27:00;2.17;;;1.97;;
23400;SDS011;11873;49.300;8.920;2023-11-18T19:32:00;3.47;;;1.70;;
23400;SDS011;11873;49.300;8.920;2023-11-18T19:37:00;2.70;;;1.50;;
23400;SDS011;11873;49.300;8.920;2023-11-18T19:42:00;1.80;;;1.70;;
23400;SDS011;11873;49.300;8.920;2023-11-18T19:47:00;3.20;;;2.70;;
23400;SDS011;11873;49.300;8.920;2023-11-18T19:52:01;2.90;;;2.33;;
23400;SDS011;11873;49.300;8.920;2023-11-18T19:57:01;2.63;;;2.43;;
23400;SDS011;11873;49.300;8.920;2023-11-18T20:02:01;3.10;;;1.90;;
23400;SDS011;11873;49.300;8.920;2023-11-18T20:07:01;2.50;;;2.27;;
23400;SDS011;11873;49.300;8.920;2023-11-18T20:12:02;4.23;;;2.53;;
23400;SDS011;11873;49.300;8.920;2023-11-18T20:17:02;3.23;;;2.83;;
23400;SDS011;11873;49.300;8.920;2023-11-18T20:22:02;3.33;;;3.00;;
23400;SDS011;11873;49.300;8.920;2023-11-18T20:27:03;8.80;;;7.00;;
23400;SDS011;11873;49.300;8.920;2023-11-18T20:32:03;3.70;;;3.10;;
23400;SDS011;11873;49.300;8.920;2023-11-18T20:37:03;4.23;;;3.70;;
23400;SDS011;11873;49.300;8.920;2023-11-18T20:42:03;3.93;;;2.60;;
23400;SDS011;11873;49.300;8.920;2023-11-18T20:47:04;3.92;;;3.55;;
23400;SDS011;11873;49.300;8.920;2023-11-18T20:52:04;13.43;;;8.30;;
23400;SDS011;11873;49.300;8.920;2023-11-18T20:57:04;3.17;;;2.47;;
23400;SDS011;11873;49.300;8.920;2023-11-18T21:02:04;2.50;;;2.03;;
23400;SDS011;11873;49.300;8.920;2023-11-18T21:07:04;7.53;;;4.47;;
23400;SDS011;11873;49.300;8.920;2023-11-18T21:12:05;4.87;;;3.60;;
23400;SDS011;11873;49.300;8.920;2023-11-18T21:17:05;6.37;;;4.87;;
23400;SDS011;11873;49.300;8.920;2023-11-18T21:22:05;13.80;;;10.07;;
23400;SDS011;11873;49.300;8.920;2023-11-18T21:27:05;9.45;;;6.78;;
23400;SDS011;11873;49.300;8.920;2023-11-18T21:32:06;9.33;;;5.10;;
23400;SDS011;11873;49.300;8.920;2023-11-18T21:37:06;6.07;;;4.37;;
23400;SDS011;11873;49.300;8.920;2023-11-18T21:42:06;3.77;;;3.37;;
23400;SDS011;11873;49.300;8.920;2023-11-18T21:47:06;3.30;;;3.00;;
23400;SDS011;11873;49.300;8.920;2023-11-18T21:52:06;2.83;;;2.60;;
23400;SDS011;11873;49.300;8.920;2023-11-18T21:57:07;3.23;;;2.87;;
23400;SDS011;11873;49.300;8.920;2023-11-18T22:02:07;2.97;;;2.73;;
23400;SDS011;11873;49.300;8.920;2023-11-18T22:07:07;4.50;;;2.90;;
23400;SDS011;11873;49.300;8.920;2023-11-18T22:12:07;3.37;;;3.07;;
23400;SDS011;11873;49.300;8.920;2023-11-18T22:17:07;2.60;;;2.40;;
23400;SDS011;11873;49.300;8.920;2023-11-18T22:22:08;2.83;;;2.63;;
23400;SDS011;11873;49.300;8.920;2023-11-18T22:27:08;6.23;;;3.03;;
23400;SDS011;11873;49.300;8.920;2023-11-18T22:32:08;4.40;;;3.70;;
23400;SDS011;11873;49.300;8.920;2023-11-18T22:37:08;3.28;;;2.90;;
23400;SDS011;11873;49.300;8.920;2023-11-18T22:42:09;2.67;;;2.47;;
23400;SDS011;11873;49.300;8.920;2023-11-18T22:47:09;2.97;;;2.30;;
23400;SDS011;11873;49.300;8.920;2023-11-18T22:52:09;2.67;;;2.40;;
23400;SDS011;11873;49.300;8.920;2023-11-18T22:57:09;3.47;;;2.93;;
23400;SDS011;11873;49.300;8.920;2023-11-18T23:02:10;4.57;;;3.10;;
23400;SDS011;11873;49.300;8.920;2023-11-18T23:07:10;3.50;;;3.20;;
23400;SDS011;11873;49.300;8.920;2023-11-18T23:12:10;4.07;;;3.67;;
23400;SDS011;11873;49.300;8.920;2023-11-18T23:17:10;4.13;;;3.43;;
23400;SDS011;11873;49.300;8.920;2023-11-18T23:22:10;4.27;;;2.97;;
23400;SDS011;11873;49.300;8.920;2023-11-18T23:27:11;2.83;;;2.63;;
23400;SDS011;11873;49.300;8.920;2023-11-18T23:32:11;2.83;;;2.60;;
23400;SDS011;11873;49.300;8.920;2023-11-18T23:37:11;3.53;;;3.03;;
23400;SDS011;11873;49.300;8.920;2023-11-18T23:42:11;4.13;;;3.57;;
23400;SDS011;11873;49.300;8.920;2023-11-18T23:47:11;3.40;;;3.10;;
23400;SDS011;11873;49.300;8.920;2023-11-18T23:52:12;3.30;;;2.47;;
23400;SDS011;11873;49.300;8.920;2023-11-18T23:57:12;4.90;;;2.33;;
